Time;durP1;ratioP1;P1;durP2;ratioP2;P2;SDS_P1;SDS_P2;PMS_P1;PMS_P2;Temp;Humidity;BMP_temperature;BMP_pressure;BME280_temperature;BME280_humidity;BME280_pressure;Samples;Min_cycle;Max_cycle;Signal;HPM_P1;HPM_P2
2021/10/16 00:01:29;;;;;;;9.30;7.18;;;11.30;75.10;;;9.74;80.15;96293.47;4979097;28;20105;-69
2021/10/16 00:03:55;;;;;;;13.15;7.10;;;11.20;75.20;;;9.72;79.18;96303.28;4972056;28;20086;-69
2021/10/16 00:06:20;;;;;;;8.55;7.30;;;11.20;75.10;;;9.69;79.90;96303.66;4955674;28;20058;-69
2021/10/16 00:08:46;;;;;;;11.40;7.88;;;11.20;75.10;;;9.70;80.02;96307.09;4938980;28;20049;-68
2021/10/16 00:11:12;;;;;;;11.18;7.40;;;11.20;75.00;;;9.65;79.31;96302.38;4987037;28;20062;-68
2021/10/16 00:13:39;;;;;;;8.18;6.97;;;11.10;75.30;;;9.61;79.69;96310.81;4957945;28;20134;-68
2021/10/16 00:16:05;;;;;;;8.18;7.18;;;11.10;75.50;;;9.60;79.38;96317.88;4990053;28;20042;-68
2021/10/16 00:18:32;;;;;;;9.38;7.03;;;11.10;75.50;;;9.56;79.52;96310.53;4974263;28;20514;-69
2021/10/16 00:20:59;;;;;;;9.90;7.50;;;11.10;75.40;;;9.55;80.79;96312.34;4997013;28;20050;-69
2021/10/16 00:23:25;;;;;;;8.98;7.03;;;11.00;75.70;;;9.55;79.60;96307.09;4984479;28;20026;-68
2021/10/16 00:25:51;;;;;;;9.65;7.63;;;11.10;75.80;;;9.54;79.50;96313.34;4960241;28;20035;-68
2021/10/16 00:28:16;;;;;;;8.75;7.25;;;11.00;75.70;;;9.50;79.54;96304.16;4970881;28;20126;-68
2021/10/16 00:30:42;;;;;;;8.82;7.28;;;11.00;75.70;;;9.47;79.77;96310.56;4983726;28;20042;-68
2021/10/16 00:33:08;;;;;;;8.90;7.40;;;11.00;75.90;;;9.44;79.99;96304.88;4973125;28;20030;-69
2021/10/16 00:35:34;;;;;;;12.32;8.07;;;10.90;75.90;;;9.43;81.27;96311.94;4973745;28;20034;-69
2021/10/16 00:37:59;;;;;;;9.02;7.05;;;10.90;76.00;;;9.39;80.63;96315.09;4989902;28;20031;-68
2021/10/16 00:40:25;;;;;;;7.97;7.03;;;10.80;76.10;;;9.37;80.63;96314.44;4972350;28;20554;-69
2021/10/16 00:42:53;;;;;;;9.65;7.38;;;10.80;76.10;;;9.33;80.76;96318.44;4973371;28;20455;-68
2021/10/16 00:45:21;;;;;;;8.98;7.25;;;10.80;76.10;;;9.27;80.61;96309.41;4989627;28;20038;-68
2021/10/16 00:47:47;;;;;;;7.85;7.00;;;10.80;76.30;;;9.27;80.73;96312.03;4973149;28;20508;-69
2021/10/16 00:50:13;;;;;;;7.97;7.18;;;10.70;76.40;;;9.26;81.15;96317.47;4989353;28;20521;-68
2021/10/16 00:52:39;;;;;;;9.45;6.90;;;10.80;76.40;;;9.25;80.63;96310.59;4973034;28;20033;-69
2021/10/16 00:55:07;;;;;;;9.55;7.50;;;10.70;76.50;;;9.20;81.00;96304.06;4972680;28;20069;-68
2021/10/16 00:57:33;;;;;;;9.63;6.95;;;10.70;76.40;;;9.20;80.75;96314.56;4958538;28;20034;-68
2021/10/16 00:59:59;;;;;;;9.93;7.43;;;10.70;76.70;;;9.18;80.73;96311.28;4984311;28;20413;-69
2021/10/16 01:02:25;;;;;;;9.70;7.40;;;10.60;76.80;;;9.17;81.72;96309.66;5007493;28;20438;-68
2021/10/16 01:04:50;;;;;;;8.60;7.60;;;10.60;76.90;;;9.15;81.67;96301.16;4956898;28;20053;-68
2021/10/16 01:07:16;;;;;;;10.18;7.97;;;10.60;77.00;;;9.11;81.43;96305.13;4989539;28;20409;-68
2021/10/16 01:09:43;;;;;;;10.02;8.93;;;10.60;77.00;;;9.08;82.23;96300.22;4954048;28;20066;-69
2021/10/16 01:12:09;;;;;;;12.25;9.05;;;10.60;77.20;;;9.03;81.88;96297.28;4969228;28;20622;-70
2021/10/16 01:14:39;;;;;;;11.10;9.57;;;10.60;77.10;;;9.07;82.83;96298.59;4955088;28;20042;-69
2021/10/16 01:17:05;;;;;;;12.00;9.37;;;10.60;77.20;;;9.07;81.89;96295.16;4953327;28;20038;-68
2021/10/16 01:19:31;;;;;;;11.18;9.35;;;10.60;77.10;;;9.07;83.10;96297.78;4940749;28;20332;-69
2021/10/16 01:21:56;;;;;;;11.70;9.98;;;10.60;77.10;;;9.07;82.82;96292.53;4956995;28;20542;-68
2021/10/16 01:24:22;;;;;;;11.18;9.45;;;10.60;77.30;;;9.07;82.42;96289.91;4974970;28;20046;-69
2021/10/16 01:26:50;;;;;;;11.25;8.80;;;10.60;77.30;;;9.07;82.96;96293.34;4967653;28;20039;-68
2021/10/16 01:29:23;;;;;;;10.32;8.45;;;10.60;77.20;;;9.06;82.70;96286.47;4972274;28;20057;-68
2021/10/16 01:31:49;;;;;;;11.05;8.45;;;10.70;77.30;;;9.07;82.60;96282.84;4989182;28;20108;-68
2021/10/16 01:34:15;;;;;;;11.45;8.70;;;10.60;77.50;;;9.06;82.68;96285.66;4981486;28;20045;-69
2021/10/16 01:36:46;;;;;;;10.25;8.20;;;10.60;77.60;;;9.04;83.76;96277.13;4989279;28;20038;-69
2021/10/16 01:39:12;;;;;;;11.80;8.57;;;10.60;77.80;;;9.03;82.55;96281.53;4970678;28;20026;-68
2021/10/16 01:41:38;;;;;;;10.35;8.63;;;10.60;77.90;;;9.03;82.82;96284.16;4954875;28;20122;-68
2021/10/16 01:44:07;;;;;;;9.55;8.00;;;10.60;77.70;;;9.04;83.41;96283.19;4961140;28;20409;-68
2021/10/16 01:46:33;;;;;;;10.35;8.10;;;10.60;77.90;;;9.03;83.74;96285.97;4968623;28;20117;-68
2021/10/16 01:48:59;;;;;;;9.60;7.78;;;10.60;77.90;;;9.02;83.88;96285.16;4971924;28;20038;-68
2021/10/16 01:51:25;;;;;;;9.60;7.95;;;10.60;78.00;;;9.02;82.95;96285.16;4988752;28;20066;-68
2021/10/16 01:53:51;;;;;;;9.63;7.88;;;10.50;78.10;;;9.02;83.20;96293.03;4980392;28;20045;-70
2021/10/16 01:56:17;;;;;;;11.52;8.35;;;10.60;78.00;;;9.03;83.31;96286.78;4969218;28;20121;-68
2021/10/16 01:58:42;;;;;;;9.27;7.72;;;10.60;78.20;;;9.02;83.97;96284.34;4984486;28;20531;-69
2021/10/16 02:01:08;;;;;;;9.45;7.60;;;10.60;78.20;;;9.00;84.03;96281.91;4974956;28;20047;-68
2021/10/16 02:03:34;;;;;;;8.80;7.07;;;10.60;78.10;;;9.00;84.06;96281.91;4965552;28;20037;-68
2021/10/16 02:06:00;;;;;;;8.85;7.25;;;10.60;78.10;;;9.00;83.79;96281.91;4995086;28;20034;-69
2021/10/16 02:08:26;;;;;;;8.32;7.10;;;10.60;78.00;;;8.99;83.76;96282.06;4969322;28;20532;-69
2021/10/16 02:10:51;;;;;;;8.43;7.53;;;10.50;78.00;;;8.98;83.45;96278.63;4968569;28;20054;-68
2021/10/16 02:13:17;;;;;;;12.68;8.07;;;10.50;78.00;;;8.98;84.34;96273.38;4984798;28;20054;-69
2021/10/16 02:15:43;;;;;;;10.68;7.90;;;10.50;77.90;;;8.97;83.78;96277.00;4989635;28;20050;-69
2021/10/16 02:18:08;;;;;;;9.07;7.85;;;10.50;77.80;;;8.97;82.87;96271.75;5004597;28;20045;-68
2021/10/16 02:20:34;;;;;;;14.18;8.70;;;10.50;78.00;;;8.99;84.37;96272.38;4989749;28;20181;-69
2021/10/16 02:23:00;;;;;;;9.77;8.30;;;10.60;77.80;;;8.98;83.75;96273.38;4971696;28;20108;-69
2021/10/16 02:25:26;;;;;;;11.15;8.85;;;10.60;77.50;;;8.96;83.89;96274.56;4988825;28;20026;-69
2021/10/16 02:27:51;;;;;;;10.05;8.88;;;10.50;77.60;;;8.94;83.83;96272.09;4989637;28;20057;-68
2021/10/16 02:30:17;;;;;;;12.02;9.18;;;10.40;77.70;;;8.92;83.56;96268.84;4992054;28;20536;-68
2021/10/16 02:32:43;;;;;;;11.38;9.35;;;10.50;77.70;;;8.95;83.58;96272.94;4975329;28;20460;-68
2021/10/16 02:35:09;;;;;;;10.98;9.23;;;10.50;77.30;;;8.96;82.78;96280.63;4991459;28;20511;-68
2021/10/16 02:37:34;;;;;;;11.75;9.75;;;10.50;77.40;;;8.97;83.04;96282.25;4992178;28;20574;-68
2021/10/16 02:40:00;;;;;;;11.45;10.25;;;10.60;77.50;;;8.93;83.95;96273.09;4991547;28;20229;-69
2021/10/16 02:42:26;;;;;;;12.30;9.02;;;10.60;77.60;;;8.96;83.32;96283.25;4976903;28;20042;-69
2021/10/16 02:44:52;;;;;;;15.43;10.65;;;10.60;77.80;;;8.99;83.86;96290.75;4956057;28;20042;-68
2021/10/16 02:47:17;;;;;;;13.27;10.32;;;10.50;77.70;;;8.98;84.23;96291.75;4987448;28;20041;-68
2021/10/16 02:49:43;;;;;;;11.60;10.10;;;10.60;77.80;;;8.97;83.13;96295.38;5015886;28;20095;-69
2021/10/16 02:52:09;;;;;;;14.07;9.15;;;10.50;78.10;;;8.95;83.81;96289.47;4991511;28;20066;-68
2021/10/16 02:54:34;;;;;;;12.88;9.23;;;10.40;78.30;;;8.94;84.54;96289.66;4992018;28;20121;-68
2021/10/16 02:57:00;;;;;;;10.43;9.25;;;10.50;78.30;;;8.92;84.53;96289.84;4992234;28;20064;-68
2021/10/16 02:59:26;;;;;;;9.52;8.50;;;10.50;78.40;;;8.90;84.21;96292.63;4958727;28;20039;-69
2021/10/16 03:01:52;;;;;;;13.48;9.25;;;10.50;78.50;;;8.89;85.08;96295.44;4990915;28;20026;-68
2021/10/16 03:04:17;;;;;;;11.65;9.60;;;10.40;78.90;;;8.87;84.85;96310.53;4959585;28;20125;-68
2021/10/16 03:06:43;;;;;;;11.52;9.45;;;10.40;78.70;;;8.85;83.78;96309.88;4974741;28;20392;-69
2021/10/16 03:09:09;;;;;;;10.77;9.25;;;10.40;78.60;;;8.81;84.79;96308.56;4955213;28;20039;-68
2021/10/16 03:11:35;;;;;;;10.02;8.95;;;10.40;78.50;;;8.81;84.61;96305.94;4959008;28;20096;-68
2021/10/16 03:14:00;;;;;;;10.45;9.35;;;10.40;78.70;;;8.78;84.90;96306.28;4959348;28;20038;-68
2021/10/16 03:16:26;;;;;;;12.23;10.15;;;10.30;78.60;;;8.73;84.74;96301.56;4974960;28;20117;-68
2021/10/16 03:18:53;;;;;;;12.10;10.07;;;10.30;78.60;;;8.76;85.11;96309.09;4973900;28;20118;-68
2021/10/16 03:21:19;;;;;;;11.80;9.55;;;10.30;78.70;;;8.76;84.54;96306.47;4971867;28;20031;-68
2021/10/16 03:23:45;;;;;;;10.93;9.52;;;10.30;78.40;;;8.77;84.07;96304.66;4990795;28;20030;-68
2021/10/16 03:26:11;;;;;;;13.60;9.75;;;10.40;78.30;;;8.76;84.72;96308.28;4975449;28;20462;-69
2021/10/16 03:28:37;;;;;;;13.80;10.55;;;10.30;78.10;;;8.74;84.76;96302.38;4974979;28;20080;-69
2021/10/16 03:31:03;;;;;;;11.60;10.18;;;10.40;78.10;;;8.75;84.77;96309.28;4993011;28;20034;-68
2021/10/16 03:33:28;;;;;;;13.02;10.55;;;10.30;78.10;;;8.74;84.22;96310.25;4981405;28;20411;-70
2021/10/16 03:35:54;;;;;;;14.55;11.13;;;10.30;78.20;;;8.74;84.63;96297.16;4973850;28;20062;-68
2021/10/16 03:38:20;;;;;;;14.55;11.18;;;10.30;78.00;;;8.71;84.67;96300.13;4973719;28;20030;-70
2021/10/16 03:40:46;;;;;;;13.80;11.35;;;10.30;77.80;;;8.69;84.63;96295.03;4972925;28;20107;-70
2021/10/16 03:43:11;;;;;;;13.68;11.27;;;10.40;77.90;;;8.71;84.53;96294.88;4988494;28;20041;-71
2021/10/16 03:45:37;;;;;;;12.55;11.25;;;10.30;78.00;;;8.72;83.73;96297.31;4985042;28;20026;-71
2021/10/16 03:48:03;;;;;;;16.10;12.23;;;10.30;78.00;;;8.75;84.02;96304.03;4996873;28;20073;-71
2021/10/16 03:50:29;;;;;;;14.60;11.35;;;10.40;78.00;;;8.73;84.55;96300.75;4973196;28;20595;-71
2021/10/16 03:52:55;;;;;;;13.07;11.68;;;10.30;77.90;;;8.74;84.43;96302.38;4970362;28;20054;-70
2021/10/16 03:55:20;;;;;;;14.15;11.90;;;10.30;78.00;;;8.75;83.96;96298.78;4986963;28;20054;-71
2021/10/16 03:57:49;;;;;;;14.48;11.98;;;10.30;78.20;;;8.73;84.27;96298.13;4990326;28;20057;-71
2021/10/16 04:00:17;;;;;;;15.05;12.50;;;10.30;78.10;;;8.74;84.17;96297.16;4956677;28;20050;-71
2021/10/16 04:02:46;;;;;;;16.02;12.23;;;10.30;78.00;;;8.73;84.28;96295.50;5016134;28;20099;-71
2021/10/16 04:05:13;;;;;;;14.07;11.60;;;10.30;78.00;;;8.71;85.14;96297.50;4989733;28;20042;-71
2021/10/16 04:07:39;;;;;;;14.57;12.07;;;10.30;78.20;;;8.71;85.02;96305.38;4974354;28;20057;-71
2021/10/16 04:10:05;;;;;;;15.25;12.95;;;10.30;78.00;;;8.70;84.08;96290.63;4989502;28;20597;-70
2021/10/16 04:12:31;;;;;;;23.02;20.00;;;10.30;77.90;;;8.70;84.99;96296.69;4974501;28;20062;-70
2021/10/16 04:14:57;;;;;;;24.20;19.30;;;10.40;78.30;;;8.70;85.26;96295.88;4981877;28;20027;-69
2021/10/16 04:17:22;;;;;;;20.98;16.40;;;10.40;78.20;;;8.69;85.18;96295.03;4990318;28;20500;-70
2021/10/16 04:19:48;;;;;;;16.80;13.77;;;10.30;78.10;;;8.71;85.07;96302.75;4989760;28;20523;-70
2021/10/16 04:22:14;;;;;;;16.70;13.98;;;10.30;78.20;;;8.69;85.24;96304.72;4991567;28;20567;-70
2021/10/16 04:24:39;;;;;;;17.20;14.55;;;10.30;78.10;;;8.67;84.68;96297.03;4989775;28;20049;-70
2021/10/16 04:27:05;;;;;;;19.00;14.63;;;10.30;78.10;;;8.71;85.02;96305.38;4972874;28;20129;-70
2021/10/16 04:29:31;;;;;;;19.38;15.00;;;10.30;78.40;;;8.71;85.60;96300.13;4970088;28;20043;-71
2021/10/16 04:31:57;;;;;;;17.23;14.38;;;10.30;78.40;;;8.71;84.69;96302.75;4988111;28;20122;-70
2021/10/16 04:34:23;;;;;;;22.25;15.27;;;10.30;78.40;;;8.68;84.42;96292.59;4989628;28;20066;-68
2021/10/16 04:36:49;;;;;;;19.33;15.38;;;10.30;78.30;;;8.66;85.41;96294.56;4972072;28;20404;-68
2021/10/16 04:39:14;;;;;;;19.60;15.52;;;10.30;78.30;;;8.66;84.78;96295.41;4957381;28;20053;-68
2021/10/16 04:41:40;;;;;;;19.33;16.20;;;10.30;78.40;;;8.64;84.97;96292.13;4990009;28;20022;-68
2021/10/16 04:44:06;;;;;;;18.45;16.25;;;10.30;78.30;;;8.67;84.94;96297.03;4973683;28;20053;-68
2021/10/16 04:46:31;;;;;;;18.77;15.88;;;10.30;78.40;;;8.69;84.95;96296.84;4973856;28;20455;-68
2021/10/16 04:48:57;;;;;;;17.85;15.80;;;10.30;78.70;;;8.66;85.04;96294.56;4988959;28;20026;-69
2021/10/16 04:51:23;;;;;;;18.52;16.15;;;10.30;79.00;;;8.67;85.25;96289.16;4940453;28;20084;-68
2021/10/16 04:53:49;;;;;;;20.85;17.17;;;10.20;78.90;;;8.68;86.01;96292.59;4957373;28;20100;-68
2021/10/16 04:56:14;;;;;;;19.63;17.27;;;10.30;78.90;;;8.65;85.27;96298.19;4973825;28;20035;-68
2021/10/16 04:58:40;;;;;;;20.60;16.70;;;10.20;79.00;;;8.64;85.28;96297.38;4957649;28;20057;-68
2021/10/16 05:01:06;;;;;;;17.17;14.85;;;10.20;79.00;;;8.64;86.03;96296.56;4972724;28;20146;-68
2021/10/16 05:03:32;;;;;;;17.45;14.95;;;10.20;78.60;;;8.62;85.74;96295.91;4989945;28;20066;-68
2021/10/16 05:05:57;;;;;;;15.75;14.05;;;10.20;78.80;;;8.59;85.47;96291.81;4989082;28;20030;-69
2021/10/16 05:08:23;;;;;;;15.15;13.50;;;10.20;78.80;;;8.57;85.80;96291.97;4986082;28;20377;-68
2021/10/16 05:10:49;;;;;;;17.17;14.18;;;10.30;78.90;;;8.59;86.04;96286.56;4972713;28;20522;-68
2021/10/16 05:13:15;;;;;;;16.52;13.48;;;10.30;78.90;;;8.55;85.66;96293.16;4989653;28;20525;-69
2021/10/16 05:15:40;;;;;;;19.75;16.92;;;10.20;78.90;;;8.55;86.10;96299.19;4973299;28;20041;-68
2021/10/16 05:18:06;;;;;;;36.78;28.90;;;10.20;79.00;;;8.56;86.45;96306.06;4989310;28;20046;-69
2021/10/16 05:20:32;;;;;;;18.08;15.57;;;10.20;79.60;;;8.56;86.21;96300.84;4980545;28;20039;-68
2021/10/16 05:22:58;;;;;;;25.65;19.52;;;10.20;79.00;;;8.55;85.78;96304.44;4988808;28;20034;-68
2021/10/16 05:25:23;;;;;;;27.55;22.77;;;10.10;79.20;;;8.55;85.70;96308.88;4989421;28;20089;-69
2021/10/16 05:27:49;;;;;;;24.27;18.33;;;10.20;79.40;;;8.53;86.25;96306.41;4989294;28;20479;-68
2021/10/16 05:30:15;;;;;;;18.73;15.02;;;10.20;79.30;;;8.54;86.00;96297.56;4972819;28;20516;-69
2021/10/16 05:32:41;;;;;;;14.90;12.35;;;10.20;79.00;;;8.55;86.03;96304.44;4957527;28;20535;-69
2021/10/16 05:35:07;;;;;;;13.48;12.00;;;10.30;78.90;;;8.52;86.08;96299.56;4988032;28;20054;-69
2021/10/16 05:37:33;;;;;;;17.73;12.65;;;10.20;78.80;;;8.48;85.85;96308.75;5019321;28;20073;-69
2021/10/16 05:39:59;;;;;;;17.35;13.02;;;10.20;78.90;;;8.52;85.61;96299.56;4959748;28;20062;-67
2021/10/16 05:42:24;;;;;;;18.30;13.88;;;10.10;79.00;;;8.52;86.25;96306.59;4956580;28;20566;-68
2021/10/16 05:44:50;;;;;;;19.23;14.07;;;10.10;79.00;;;8.49;85.65;96305.13;4987752;28;20030;-68
2021/10/16 05:47:16;;;;;;;14.93;12.98;;;10.10;79.10;;;8.48;85.74;96302.69;4956465;28;20104;-68
2021/10/16 05:49:42;;;;;;;17.73;14.20;;;10.10;79.20;;;8.47;85.87;96312.34;4956024;28;20042;-68
2021/10/16 05:52:08;;;;;;;18.13;13.75;;;10.10;79.10;;;8.46;85.81;96318.59;4956111;28;20042;-68
2021/10/16 05:54:33;;;;;;;17.13;14.63;;;10.10;78.90;;;8.45;86.36;96314.34;4956355;28;20030;-68
2021/10/16 05:56:59;;;;;;;19.50;14.57;;;10.10;79.00;;;8.46;86.16;96320.38;4955550;28;20092;-68
2021/10/16 05:59:25;;;;;;;16.55;13.65;;;10.10;79.00;;;8.44;86.22;96317.94;4952530;28;20030;-68
2021/10/16 06:01:51;;;;;;;18.10;14.35;;;10.10;79.10;;;8.42;86.47;96322.53;4952717;28;20082;-68
2021/10/16 06:04:16;;;;;;;15.63;13.95;;;10.10;78.90;;;8.43;85.74;96324.19;4964069;28;20049;-68
2021/10/16 06:06:42;;;;;;;18.58;14.43;;;10.10;78.80;;;8.45;86.23;96334.50;4973091;28;20058;-68
2021/10/16 06:09:08;;;;;;;18.15;14.32;;;10.20;78.80;;;8.45;85.80;96330.06;4991580;28;20045;-68
2021/10/16 06:11:34;;;;;;;16.95;15.07;;;10.10;78.90;;;8.42;85.74;96330.41;4976199;28;20034;-67
2021/10/16 06:13:59;;;;;;;17.55;14.65;;;10.20;78.70;;;8.43;85.88;96336.47;4959801;28;20073;-67
2021/10/16 06:16:25;;;;;;;18.38;14.93;;;10.20;78.70;;;8.46;86.41;96339.56;4976247;28;20113;-67
2021/10/16 06:18:51;;;;;;;19.52;14.10;;;10.10;78.70;;;8.44;86.24;96336.28;5007612;28;20523;-67
2021/10/16 06:21:17;;;;;;;18.33;14.13;;;10.20;78.60;;;8.48;86.54;96345.44;4975763;28;20042;-68
2021/10/16 06:23:42;;;;;;;16.90;13.85;;;10.20;78.50;;;8.49;85.66;96352.31;4992224;28;20117;-68
2021/10/16 06:26:08;;;;;;;17.60;14.45;;;10.20;78.40;;;8.52;85.49;96348.53;4977786;28;20157;-67
2021/10/16 06:28:34;;;;;;;16.85;14.35;;;10.20;78.50;;;8.51;86.08;96350.34;5009850;28;20061;-68
2021/10/16 06:31:00;;;;;;;17.95;14.02;;;10.20;78.40;;;8.53;86.40;96345.75;4992601;28;20041;-68
2021/10/16 06:33:25;;;;;;;16.98;13.57;;;10.30;78.50;;;8.54;85.99;96352.63;4992137;28;20496;-69
2021/10/16 06:35:52;;;;;;;18.83;14.75;;;10.30;78.60;;;8.57;85.99;96357.53;4985291;28;20180;-69
2021/10/16 06:38:18;;;;;;;18.08;14.13;;;10.30;78.60;;;8.60;86.59;96364.25;4991674;28;20361;-69
2021/10/16 06:40:44;;;;;;;18.10;14.40;;;10.40;78.60;;;8.62;86.79;96356.22;4975342;28;20045;-69
2021/10/16 06:43:10;;;;;;;18.52;14.48;;;10.40;78.30;;;8.62;86.46;96358.84;4992483;28;20034;-69
2021/10/16 06:45:36;;;;;;;19.95;15.75;;;10.40;78.30;;;8.66;86.31;96362.75;4995794;28;20393;-69
2021/10/16 06:48:01;;;;;;;18.25;15.38;;;10.50;78.30;;;8.69;86.73;96368.47;4971735;28;20524;-69
2021/10/16 06:50:27;;;;;;;19.73;14.65;;;10.50;78.50;;;8.76;86.95;96363.34;4952715;28;20118;-70
2021/10/16 06:52:53;;;;;;;16.90;14.77;;;10.60;78.30;;;8.80;86.71;96369.88;4958103;28;20468;-69
2021/10/16 06:55:19;;;;;;;19.75;15.13;;;10.60;78.20;;;8.86;86.59;96375.28;4942854;28;20046;-70
2021/10/16 06:57:45;;;;;;;18.63;15.00;;;10.70;78.00;;;8.92;86.66;96373.78;4990968;28;20045;-70
2021/10/16 07:00:11;;;;;;;15.65;13.75;;;10.80;78.10;;;8.98;87.08;96380.13;4990522;28;20044;-69
2021/10/16 07:02:37;;;;;;;18.25;14.73;;;10.90;77.90;;;9.02;86.48;96379.63;4991584;28;20034;-70
2021/10/16 07:05:03;;;;;;;17.88;14.20;;;10.90;77.80;;;9.09;85.67;96385.00;4995187;28;20116;-67
2021/10/16 07:07:29;;;;;;;18.52;13.80;;;11.00;77.60;;;9.16;86.90;96381.53;5012067;28;20033;-70
2021/10/16 07:09:55;;;;;;;18.40;14.10;;;11.10;77.50;;;9.20;85.49;96382.81;4980248;28;20034;-67
2021/10/16 07:12:22;;;;;;;16.52;14.13;;;11.10;77.40;;;9.27;86.08;96384.72;4990711;28;20538;-67
2021/10/16 07:14:48;;;;;;;17.98;14.30;;;11.10;77.30;;;9.32;85.85;96385.03;4989493;28;20122;-67
2021/10/16 07:17:14;;;;;;;17.67;14.60;;;11.20;77.20;;;9.39;86.71;96391.22;4990925;28;20022;-66
2021/10/16 07:19:40;;;;;;;19.30;14.55;;;11.30;77.20;;;9.41;86.34;96389.25;4990200;28;20092;-67
2021/10/16 07:22:05;;;;;;;17.95;14.27;;;11.40;76.90;;;9.47;86.12;96384.09;4974978;28;20061;-68
2021/10/16 07:24:31;;;;;;;16.65;13.27;;;11.50;76.90;;;9.57;85.84;96383.06;4974990;28;20065;-69
2021/10/16 07:26:57;;;;;;;15.20;13.00;;;11.60;76.60;;;9.63;85.41;96387.59;4974464;28;20054;-67
2021/10/16 07:29:23;;;;;;;15.30;13.13;;;11.60;75.90;;;9.68;84.78;96387.88;4974600;28;20467;-69
2021/10/16 07:31:52;;;;;;;15.40;12.77;;;11.70;75.70;;;9.73;84.47;96383.75;4990822;28;20049;-67
2021/10/16 07:34:18;;;;;;;14.90;12.30;;;11.70;75.40;;;9.80;85.01;96389.94;4981729;28;20510;-67
2021/10/16 07:36:44;;;;;;;14.45;12.30;;;11.90;74.90;;;9.87;83.82;96390.03;5010330;28;20034;-67
2021/10/16 07:39:10;;;;;;;15.50;12.27;;;11.90;74.50;;;9.97;84.85;96395.06;5009449;28;20795;-67
2021/10/16 07:41:36;;;;;;;14.90;11.25;;;12.10;74.20;;;10.04;83.66;96382.84;5010425;28;20045;-67
2021/10/16 07:44:03;;;;;;;14.25;11.38;;;12.20;74.30;;;10.11;84.05;96386.38;5010246;28;20038;-67
2021/10/16 07:46:29;;;;;;;13.77;11.05;;;12.20;73.70;;;10.21;82.78;96391.44;4994124;28;20033;-67
2021/10/16 07:48:54;;;;;;;14.85;11.55;;;12.40;73.10;;;10.29;82.75;96388.69;4995764;28;20040;-67
2021/10/16 07:51:20;;;;;;;19.27;12.68;;;12.60;72.80;;;10.40;83.44;96389.06;4974233;28;20030;-68
2021/10/16 07:53:46;;;;;;;14.70;12.45;;;12.60;72.20;;;10.52;82.64;96388.63;4990529;28;20042;-67
2021/10/16 07:56:11;;;;;;;14.88;11.10;;;12.80;72.30;;;10.64;82.96;96388.00;4974386;28;20119;-68
2021/10/16 07:58:39;;;;;;;24.95;21.20;;;12.90;72.00;;;10.76;82.51;96385.72;4990676;28;20037;-67
2021/10/16 08:01:06;;;;;;;17.27;12.77;;;13.10;71.60;;;10.87;82.09;96387.09;4958391;28;20030;-68
2021/10/16 08:03:32;;;;;;;17.23;14.73;;;13.30;70.20;;;10.98;81.43;96390.03;4990361;28;20030;-68
2021/10/16 08:05:57;;;;;;;18.20;14.80;;;13.40;70.00;;;11.11;80.58;96391.22;4991026;28;20504;-68
2021/10/16 08:08:23;;;;;;;21.10;15.10;;;13.70;69.20;;;11.31;81.10;96406.22;4989920;28;20031;-68
2021/10/16 08:10:49;;;;;;;16.38;13.48;;;14.20;68.20;;;11.57;80.12;96397.81;4989150;28;20062;-68
2021/10/16 08:13:15;;;;;;;14.40;10.10;;;14.60;66.40;;;11.74;80.12;96390.44;4970542;28;20129;-68
2021/10/16 08:15:40;;;;;;;19.75;15.02;;;14.60;65.60;;;11.89;79.05;96399.13;4954633;28;20054;-68
2021/10/16 08:18:06;;;;;;;14.93;10.68;;;14.60;65.30;;;12.02;78.48;96397.63;4964550;28;20042;-68
2021/10/16 08:20:32;;;;;;;14.38;9.52;;;14.60;65.40;;;12.12;77.96;96404.19;4987591;28;20194;-68
2021/10/16 08:22:58;;;;;;;17.50;11.48;;;14.60;65.20;;;12.19;76.70;96399.78;5005338;28;20097;-68
2021/10/16 08:25:23;;;;;;;12.98;9.38;;;14.60;65.20;;;12.29;76.90;96403.91;4973767;28;20035;-68
2021/10/16 08:27:49;;;;;;;14.05;11.63;;;14.70;64.90;;;12.40;76.73;96398.09;4954405;28;20467;-68
2021/10/16 08:30:16;;;;;;;13.90;10.20;;;14.80;65.30;;;12.50;76.64;96403.84;4954071;28;20035;-68
2021/10/16 08:32:42;;;;;;;11.88;8.50;;;14.90;64.60;;;12.61;75.33;96408.59;4947051;28;20042;-68
2021/10/16 08:35:08;;;;;;;11.73;8.20;;;15.40;63.50;;;12.88;76.08;96409.53;4940881;28;20092;-68
2021/10/16 08:37:34;;;;;;;10.45;7.80;;;16.30;60.90;;;13.24;74.80;96414.63;4957601;28;20034;-69
2021/10/16 08:40:00;;;;;;;12.27;9.63;;;17.00;58.20;;;13.63;73.95;96407.81;4973393;28;20385;-69
2021/10/16 08:42:26;;;;;;;10.93;9.10;;;17.60;56.00;;;13.99;74.73;96408.28;4989415;28;20448;-70
2021/10/16 08:44:57;;;;;;;16.13;12.93;;;17.80;55.30;;;14.39;72.64;96405.63;4989008;28;20030;-69
2021/10/16 08:47:23;;;;;;;16.75;8.63;;;18.50;53.60;;;14.78;72.24;96402.13;4971429;28;20547;-70
2021/10/16 08:49:51;;;;;;;13.50;8.43;;;19.10;51.40;;;15.14;70.62;96406.91;4969660;28;20039;-69
2021/10/16 08:52:17;;;;;;;10.55;7.28;;;19.50;50.60;;;15.49;70.19;96403.91;4975357;28;20101;-69
2021/10/16 08:54:43;;;;;;;9.70;6.57;;;19.90;49.20;;;15.76;68.82;96404.59;4973113;28;20498;-71
2021/10/16 08:57:08;;;;;;;8.35;5.93;;;20.10;47.80;;;15.98;67.75;96400.56;4988591;28;20443;-72
2021/10/16 08:59:34;;;;;;;7.65;5.63;;;20.30;46.60;;;16.16;66.49;96405.13;4953538;28;20090;-68
2021/10/16 09:02:05;;;;;;;7.93;5.68;;;20.50;46.20;;;16.38;66.01;96409.03;4940029;28;20051;-70
2021/10/16 09:04:32;;;;;;;7.82;5.50;;;20.80;46.20;;;16.59;65.99;96404.34;4980993;28;20038;-70
2021/10/16 09:06:58;;;;;;;8.82;5.70;;;21.10;44.90;;;16.77;64.90;96402.56;4988529;28;20591;-70
2021/10/16 09:09:29;;;;;;;6.30;4.88;;;21.30;44.10;;;16.97;61.85;96405.00;4956241;28;20042;-70
2021/10/16 09:11:55;;;;;;;8.20;5.85;;;21.60;43.50;;;17.09;63.18;96400.56;4988975;28;20121;-70
2021/10/16 09:14:26;;;;;;;6.55;5.13;;;22.00;41.60;;;17.20;60.39;96406.16;4972271;28;20039;-70
2021/10/16 09:17:05;;;;;;;6.68;4.90;;;22.40;41.20;;;17.36;59.21;96405.56;4960500;28;20089;-70
2021/10/16 09:19:35;;;;;;;6.90;5.03;;;22.90;40.70;;;17.44;59.30;96402.63;4942007;28;20485;-71
2021/10/16 09:22:10;;;;;;;8.35;5.47;;;23.30;39.20;;;17.67;58.54;96404.56;4956451;28;20149;-69
2021/10/16 09:24:40;;;;;;;6.72;5.22;;;23.90;38.40;;;17.78;57.83;96401.16;4996394;28;20049;-68
2021/10/16 09:27:07;;;;;;;7.30;5.25;;;24.50;36.80;;;17.92;60.67;96399.13;4972033;28;20049;-71
2021/10/16 09:29:38;;;;;;;8.57;6.43;;;25.00;36.00;;;18.16;57.51;96395.47;4988655;28;20113;-69
2021/10/16 09:32:13;;;;;;;11.23;6.47;;;25.50;35.10;;;18.34;58.99;96400.69;4984856;28;20034;-71
2021/10/16 09:34:44;;;;;;;10.20;7.25;;;26.00;34.00;;;18.63;57.03;96400.84;4989805;28;20124;-71
2021/10/16 09:37:19;;;;;;;;;;;26.40;33.40;;;19.00;54.60;96400.56;4956408;28;20117;-72
2021/10/16 09:39:48;;;;;;;8.63;5.65;;;26.80;33.20;;;19.26;59.84;96400.88;4987901;28;19913;-73
2021/10/16 09:42:17;;;;;;;8.85;6.30;;;26.80;33.30;;;19.43;60.64;96395.59;4990200;28;20042;-72
2021/10/16 09:44:44;;;;;;;9.90;7.45;;;25.80;34.30;;;19.61;59.86;96399.97;4951414;28;20042;-77
2021/10/16 09:47:12;;;;;;;10.63;8.07;;;25.00;36.10;;;19.64;57.93;96396.00;4979120;28;20037;-76
2021/10/16 09:49:45;;;;;;;7.80;6.50;;;23.90;37.70;;;19.44;56.57;96399.06;4979647;28;20031;-77
2021/10/16 09:52:14;;;;;;;9.75;5.68;;;23.00;39.70;;;19.17;55.54;96396.13;4988711;28;20042;-76
2021/10/16 09:54:41;;;;;;;7.57;5.32;;;22.20;41.70;;;18.90;55.77;96393.19;4988010;28;20034;-77
2021/10/16 09:57:09;;;;;;;9.57;5.15;;;21.70;42.70;;;18.67;55.61;96386.00;4987912;28;20483;-77
2021/10/16 09:59:37;;;;;;;6.43;5.18;;;21.30;43.40;;;18.39;55.78;96396.53;4988037;28;20035;-77
2021/10/16 10:02:04;;;;;;;6.38;5.30;;;21.00;44.30;;;18.08;56.34;96398.44;4956187;28;20515;-76
2021/10/16 10:04:43;;;;;;;8.02;5.32;;;20.60;44.90;;;17.85;53.77;96393.88;4953971;28;20050;-76
2021/10/16 10:07:09;;;;;;;9.10;6.03;;;20.50;45.20;;;17.57;56.78;96393.63;4968065;28;20402;-75
2021/10/16 10:09:38;;;;;;;7.15;6.10;;;20.20;46.40;;;17.46;56.92;96379.25;4952924;28;20041;-77
2021/10/16 10:12:04;;;;;;;7.65;5.68;;;20.10;46.60;;;17.38;56.85;96387.53;4956138;28;20026;-76